GCXO/TFN METAR and TAF weather

Enter ICAO airport designator
Station Type Date Time Source
GCXO METAR 2021/10/22 19:30 UTC NOAA

GCXO 221930Z 32011KT 9999 SCT020 17/13 Q1021 NOSIG


Station Type Date Time Source
GCXO Decoded METAR 2021/10/22 19:30 UTC NOAA

Tenerife / Los Rodeos, Spain (GCXO) 28-28N 016-19W 617M
Oct 22, 2021 - 03:30 PM EDT / 2021.10.22 1930 UTC
Wind: from the NW (320 degrees) at 13 MPH (11 KT):0
Visibility: greater than 7 mile(s):0
Sky conditions: partly cloudy
Temperature: 62 F (17 C)
Dew Point: 55 F (13 C)
Relative Humidity: 77%
Pressure (altimeter): 30.15 in. Hg (1021 hPa)
ob: GCXO 221930Z 32011KT 9999 SCT020 17/13 Q1021 NOSIG
cycle: 19

Station Type Date Time Source
GCXO TAF 2021/10/22 15:36 UTC NOAA

TAF GCXO 221400Z 2215/2315 34012KT 9999 SCT015 TX20/2314Z TN15/2306Z PROB30
TEMPO 2223/2309 4500 RA BCFG BKN005

Example: see airport list